HEAX/ALY METAR and TAF weather

Enter ICAO airport designator
Station Type Date Time Source
HEAX METAR 2020/09/26 22:00 UTC NOAA

HEAX 262200Z 10004KT CAVOK 25/20 Q1012 NOSIG


Station Type Date Time Source
HEAX Decoded METAR 2020/09/26 22:00 UTC NOAA

Alexandria / Nouzha, Egypt (HEAX) 31-12N 029-57E 7M
Sep 26, 2020 - 06:00 PM EDT / 2020.09.26 2200 UTC
Wind: from the E (100 degrees) at 5 MPH (4 KT):0
Visibility: greater than 7 mile(s):0
Temperature: 77 F (25 C)
Dew Point: 68 F (20 C)
Relative Humidity: 73%
Pressure (altimeter): 29.88 in. Hg (1012 hPa)
ob: HEAX 262200Z 10004KT CAVOK 25/20 Q1012 NOSIG
cycle: 22

Station Type Date Time Source
HEAX TAF 2020/09/26 18:40 UTC NOAA

TAF HEAX 261700Z 2618/2724 03010KT 9999 FEW020
TEMPO 2700/2706 VRB06KT 4000 BR NSC

Example: see airport list